createdAt,value
2023-01-27T00:00:44.608Z,0.30
2023-01-27T00:01:44.599Z,0.20
2023-01-27T00:02:44.607Z,0.30
2023-01-27T00:04:44.565Z,0.30
2023-01-27T00:05:44.545Z,0.20
2023-01-27T00:06:44.545Z,0.40
2023-01-27T00:07:44.524Z,0.30
2023-01-27T00:08:44.586Z,0.30
2023-01-27T00:09:44.504Z,0.30
2023-01-27T00:10:44.492Z,0.30
2023-01-27T00:11:44.471Z,0.30
2023-01-27T00:12:44.461Z,0.20
2023-01-27T00:13:44.452Z,0.30
2023-01-27T00:14:44.435Z,0.20
2023-01-27T00:15:44.482Z,0.30
2023-01-27T00:16:44.410Z,0.30
2023-01-27T00:17:44.401Z,0.20
2023-01-27T00:18:44.407Z,0.30
2023-01-27T00:19:44.371Z,0.20
2023-01-27T00:20:44.370Z,0.30
2023-01-27T00:21:44.346Z,0.20
2023-01-27T00:22:44.336Z,0.20
2023-01-27T00:23:44.327Z,0.20
2023-01-27T00:24:44.337Z,0.30
2023-01-27T00:25:44.294Z,0.20
2023-01-27T00:26:44.286Z,0.20
2023-01-27T00:27:44.273Z,0.20
2023-01-27T00:28:44.265Z,0.20
2023-01-27T00:29:44.243Z,0.20
2023-01-27T00:30:44.243Z,0.20
2023-01-27T00:31:44.282Z,0.30
2023-01-27T00:32:44.208Z,0.20
2023-01-27T00:33:44.209Z,0.20
2023-01-27T00:34:44.182Z,0.20
2023-01-27T00:35:44.170Z,0.20
2023-01-27T00:36:44.156Z,0.20
2023-01-27T00:37:44.142Z,0.20
2023-01-27T00:38:44.131Z,0.20
2023-01-27T00:39:44.120Z,0.20
2023-01-27T00:40:44.128Z,0.30
2023-01-27T00:41:44.092Z,0.20
2023-01-27T00:42:44.081Z,0.30
2023-01-27T00:43:44.065Z,0.30
2023-01-27T00:44:44.054Z,0.20
2023-01-27T00:45:44.041Z,0.20
2023-01-27T00:46:44.092Z,0.20
2023-01-27T00:47:44.018Z,0.30
2023-01-27T00:48:44.003Z,0.20
2023-01-27T00:49:43.989Z,0.20
2023-01-27T00:50:43.979Z,0.20
2023-01-27T00:51:43.965Z,0.30
2023-01-27T00:52:43.958Z,0.20
2023-01-27T00:53:43.945Z,0.20
2023-01-27T00:54:43.931Z,0.30
2023-01-27T00:55:43.919Z,0.20
2023-01-27T00:56:43.929Z,0.30
2023-01-27T00:57:43.891Z,0.20
2023-01-27T00:58:43.882Z,0.30
2023-01-27T00:59:43.867Z,0.20
2023-01-27T01:00:43.861Z,0.30
2023-01-27T01:01:43.889Z,0.20
2023-01-27T01:02:43.878Z,0.20
2023-01-27T01:03:43.821Z,0.20
2023-01-27T01:04:43.809Z,0.20
2023-01-27T01:05:43.799Z,0.30
2023-01-27T01:06:43.783Z,0.20
2023-01-27T01:07:43.771Z,0.20
2023-01-27T01:08:43.760Z,0.20
2023-01-27T01:09:43.747Z,0.30
2023-01-27T01:10:43.752Z,0.20
2023-01-27T01:11:43.727Z,0.30
2023-01-27T01:12:43.734Z,0.30
2023-01-27T01:13:43.698Z,0.30
2023-01-27T01:14:43.685Z,0.30
2023-01-27T01:15:43.739Z,0.30
2023-01-27T01:16:43.671Z,0.40
2023-01-27T01:17:43.652Z,0.30
2023-01-27T01:18:43.636Z,0.30
2023-01-27T01:19:43.621Z,0.30
2023-01-27T01:20:43.617Z,0.30
2023-01-27T01:21:43.598Z,0.30
2023-01-27T01:22:43.595Z,0.30
2023-01-27T01:23:43.581Z,0.20
2023-01-27T01:24:43.567Z,0.20
2023-01-27T01:25:43.550Z,0.30
2023-01-27T01:26:43.547Z,0.20
2023-01-27T01:27:43.524Z,0.30
2023-01-27T01:28:43.543Z,0.30
2023-01-27T01:29:43.500Z,0.30
2023-01-27T01:30:43.495Z,0.20
2023-01-27T01:31:43.536Z,0.20
2023-01-27T01:32:43.467Z,0.30
2023-01-27T01:33:43.459Z,0.20
2023-01-27T01:34:43.446Z,0.30
2023-01-27T01:35:43.433Z,0.20
2023-01-27T01:36:43.418Z,0.30
2023-01-27T01:37:43.403Z,0.30
2023-01-27T01:38:43.398Z,0.30
2023-01-27T01:39:43.380Z,0.30
2023-01-27T01:40:43.372Z,0.20
2023-01-27T01:41:43.354Z,0.30
2023-01-27T01:42:43.344Z,0.30
2023-01-27T01:43:43.352Z,0.30
2023-01-27T01:44:43.344Z,0.30
2023-01-27T01:45:43.309Z,0.30
2023-01-27T01:46:43.339Z,0.30
2023-01-27T01:47:43.281Z,0.20
2023-01-27T01:48:43.273Z,0.30
2023-01-27T01:49:43.256Z,0.30
2023-01-27T01:50:43.245Z,0.40
2023-01-27T01:51:43.232Z,0.30
2023-01-27T01:52:43.224Z,0.40
2023-01-27T01:53:43.219Z,0.30
2023-01-27T01:54:43.198Z,0.30
2023-01-27T01:55:43.185Z,0.30
2023-01-27T01:56:43.173Z,0.20
2023-01-27T01:57:43.158Z,0.30
2023-01-27T01:59:43.133Z,0.30
2023-01-27T02:00:43.147Z,0.30
2023-01-27T02:01:43.109Z,0.30
2023-01-27T02:02:43.145Z,0.30
2023-01-27T02:03:43.082Z,0.20
2023-01-27T02:04:43.076Z,0.20
2023-01-27T02:05:43.065Z,0.30
2023-01-27T02:06:43.050Z,0.30
2023-01-27T02:07:43.037Z,0.20
2023-01-27T02:08:43.036Z,0.40
2023-01-27T02:09:43.016Z,0.30
2023-01-27T02:10:43.005Z,0.30
2023-01-27T02:11:42.986Z,0.20
2023-01-27T02:12:42.976Z,0.20
2023-01-27T02:13:42.962Z,0.30
2023-01-27T02:14:42.952Z,0.30
2023-01-27T02:15:42.937Z,0.30
2023-01-27T02:16:42.992Z,0.30
2023-01-27T02:17:42.914Z,0.30
2023-01-27T02:18:42.908Z,0.30
2023-01-27T02:19:42.891Z,0.30
2023-01-27T02:20:42.879Z,0.30
2023-01-27T02:21:42.865Z,0.30
2023-01-27T02:22:42.871Z,0.30
2023-01-27T02:23:42.843Z,0.30
2023-01-27T02:24:42.841Z,0.40
2023-01-27T02:25:42.817Z,0.20
2023-01-27T02:26:42.805Z,0.40
2023-01-27T02:27:42.794Z,0.20
2023-01-27T02:28:42.780Z,0.20
2023-01-27T02:29:42.768Z,0.30
2023-01-27T02:30:42.897Z,0.20
2023-01-27T02:31:42.961Z,0.30
2023-01-27T02:32:42.764Z,0.30
2023-01-27T02:33:42.719Z,0.30
2023-01-27T02:34:42.710Z,0.30
2023-01-27T02:35:42.711Z,0.30
2023-01-27T02:36:42.684Z,0.30
2023-01-27T02:37:42.671Z,0.30
2023-01-27T02:38:42.674Z,0.20
2023-01-27T02:39:42.650Z,0.20
2023-01-27T02:40:42.636Z,0.30
2023-01-27T02:41:42.638Z,0.30
2023-01-27T02:42:42.614Z,0.30
2023-01-27T02:43:42.604Z,0.30
2023-01-27T02:44:42.587Z,0.30
2023-01-27T02:45:42.573Z,0.30
2023-01-27T02:46:42.563Z,0.30
2023-01-27T02:47:42.549Z,0.30
2023-01-27T02:48:42.565Z,0.30
2023-01-27T02:49:42.524Z,0.40
2023-01-27T02:50:42.517Z,0.30
2023-01-27T02:51:42.503Z,0.30
2023-01-27T02:52:42.489Z,0.30
2023-01-27T02:53:42.475Z,0.30
2023-01-27T02:54:42.469Z,0.30
2023-01-27T02:55:42.450Z,0.30
2023-01-27T02:56:42.441Z,0.30
2023-01-27T02:57:42.440Z,0.30
2023-01-27T02:58:42.418Z,0.40
2023-01-27T02:59:42.401Z,0.30
2023-01-27T03:00:42.391Z,0.40
2023-01-27T03:01:42.498Z,0.30
2023-01-27T03:02:42.480Z,0.40
2023-01-27T03:03:42.364Z,0.30
2023-01-27T03:04:42.384Z,0.30
2023-01-27T03:05:42.327Z,0.30
2023-01-27T03:06:42.325Z,0.30
2023-01-27T03:07:42.307Z,0.30
2023-01-27T03:08:42.291Z,0.30
2023-01-27T03:09:42.281Z,0.30
2023-01-27T03:10:42.267Z,0.30
2023-01-27T03:11:42.265Z,0.30
2023-01-27T03:12:42.244Z,0.30
2023-01-27T03:13:42.233Z,0.30
2023-01-27T03:14:42.216Z,0.30
2023-01-27T03:15:42.260Z,0.20
2023-01-27T03:16:42.204Z,0.30
2023-01-27T03:17:42.201Z,0.20
2023-01-27T03:18:42.183Z,0.30
2023-01-27T03:19:42.159Z,0.30
2023-01-27T03:20:42.171Z,0.30
2023-01-27T03:21:42.135Z,0.20
2023-01-27T03:22:42.122Z,0.40
2023-01-27T03:23:42.117Z,0.30
2023-01-27T03:24:42.095Z,0.40
2023-01-27T03:25:42.085Z,0.30
2023-01-27T03:26:42.070Z,0.20
2023-01-27T03:27:42.065Z,0.30
2023-01-27T03:28:42.054Z,0.30
2023-01-27T03:29:42.036Z,0.30
2023-01-27T03:30:42.162Z,0.30
2023-01-27T03:31:42.149Z,0.40
2023-01-27T03:32:42.004Z,0.30
2023-01-27T03:33:41.988Z,0.30
2023-01-27T03:34:41.975Z,0.30
2023-01-27T03:35:41.971Z,0.30
2023-01-27T03:36:41.977Z,0.30
2023-01-27T03:37:41.940Z,0.20
2023-01-27T03:38:41.929Z,0.30
2023-01-27T03:39:41.921Z,0.30
2023-01-27T03:40:41.906Z,0.30
2023-01-27T03:41:41.891Z,0.30
2023-01-27T03:42:41.881Z,0.30
2023-01-27T03:43:41.867Z,0.20
2023-01-27T03:44:41.854Z,0.30
2023-01-27T03:45:41.843Z,0.30
2023-01-27T03:46:41.829Z,0.20
2023-01-27T03:47:41.822Z,0.30
2023-01-27T03:48:41.805Z,0.20
2023-01-27T03:49:41.796Z,0.30
2023-01-27T03:50:41.780Z,0.20
2023-01-27T03:51:41.775Z,0.30
2023-01-27T03:52:41.797Z,0.30
2023-01-27T03:53:41.769Z,0.30
2023-01-27T03:54:41.734Z,0.30
2023-01-27T03:55:41.722Z,0.20
2023-01-27T03:56:41.706Z,0.30
2023-01-27T03:57:41.696Z,0.30
2023-01-27T03:58:41.694Z,0.30
2023-01-27T03:59:41.683Z,0.20
2023-01-27T04:00:41.679Z,0.30
2023-01-27T04:01:41.728Z,0.20
2023-01-27T04:02:41.672Z,0.20
2023-01-27T04:03:41.622Z,0.30
2023-01-27T04:04:41.609Z,0.20
2023-01-27T04:05:41.596Z,0.30
2023-01-27T04:06:41.583Z,0.20
2023-01-27T04:07:41.571Z,0.30
2023-01-27T04:08:41.584Z,0.20
2023-01-27T04:09:41.549Z,0.30
2023-01-27T04:10:41.537Z,0.20
2023-01-27T04:11:41.523Z,0.30
2023-01-27T04:12:41.509Z,0.20
2023-01-27T04:13:41.501Z,0.20
2023-01-27T04:14:41.486Z,0.20
2023-01-27T04:15:41.494Z,0.20
2023-01-27T04:16:41.478Z,0.30
2023-01-27T04:17:41.451Z,0.20
2023-01-27T04:18:41.435Z,0.30
2023-01-27T04:19:41.433Z,0.20
2023-01-27T04:20:41.411Z,0.30
2023-01-27T04:21:41.402Z,0.30
2023-01-27T04:22:41.388Z,0.20
2023-01-27T04:23:41.376Z,0.30
2023-01-27T04:24:41.389Z,0.20
2023-01-27T04:25:41.352Z,0.30
2023-01-27T04:26:41.348Z,0.30
2023-01-27T04:27:41.328Z,0.30
2023-01-27T04:28:44.701Z,0.30
2023-01-27T04:29:41.332Z,0.30
2023-01-27T04:30:41.337Z,0.30
2023-01-27T04:31:41.371Z,0.20
2023-01-27T04:32:41.293Z,0.30
2023-01-27T04:33:41.254Z,0.30
2023-01-27T04:34:41.244Z,0.30
2023-01-27T04:35:41.230Z,0.20
2023-01-27T04:36:41.217Z,0.30
2023-01-27T04:37:41.208Z,0.20
2023-01-27T04:38:41.192Z,0.20
2023-01-27T04:39:41.183Z,0.30
2023-01-27T04:40:41.193Z,0.20
2023-01-27T04:41:41.157Z,0.40
2023-01-27T04:42:41.145Z,0.30
2023-01-27T04:43:41.133Z,0.20
2023-01-27T04:44:41.120Z,0.30
2023-01-27T04:45:41.125Z,0.20
2023-01-27T04:46:41.096Z,0.30
2023-01-27T04:47:41.090Z,0.20
2023-01-27T04:48:41.078Z,0.30
2023-01-27T04:49:41.061Z,0.20
2023-01-27T04:50:41.065Z,0.30
2023-01-27T04:51:41.037Z,0.20
2023-01-27T04:52:41.027Z,0.20
2023-01-27T04:53:41.014Z,0.30
2023-01-27T04:54:41.005Z,0.20
2023-01-27T04:55:40.992Z,0.30
2023-01-27T04:56:41.000Z,0.20
2023-01-27T04:57:40.964Z,0.30
2023-01-27T04:58:40.950Z,0.30
2023-01-27T04:59:40.959Z,0.30
2023-01-27T05:00:40.934Z,0.20
2023-01-27T05:01:41.046Z,0.20
2023-01-27T05:02:40.942Z,0.30
2023-01-27T05:03:40.889Z,0.20
2023-01-27T05:04:40.882Z,0.30
2023-01-27T05:05:40.866Z,0.20
2023-01-27T05:06:40.862Z,0.30
2023-01-27T05:07:40.844Z,0.30
2023-01-27T05:08:40.836Z,0.30
2023-01-27T05:09:40.818Z,0.30
2023-01-27T05:10:40.804Z,0.20
2023-01-27T05:11:40.796Z,0.30
2023-01-27T05:12:40.807Z,0.30
2023-01-27T05:13:40.774Z,0.30
2023-01-27T05:14:40.761Z,0.30
2023-01-27T05:15:40.812Z,0.30
2023-01-27T05:16:40.781Z,0.30
2023-01-27T05:17:40.720Z,0.30
2023-01-27T05:18:40.708Z,0.30
2023-01-27T05:19:40.700Z,0.20
2023-01-27T05:20:40.682Z,0.30
2023-01-27T05:21:40.682Z,0.30
2023-01-27T05:22:40.658Z,0.30
2023-01-27T05:23:40.652Z,0.30
2023-01-27T05:24:40.632Z,0.30
2023-01-27T05:25:40.628Z,0.30
2023-01-27T05:26:40.625Z,0.20
2023-01-27T05:27:40.596Z,0.30
2023-01-27T05:28:40.610Z,0.20
2023-01-27T05:29:40.588Z,0.30
2023-01-27T05:30:40.597Z,0.20
2023-01-27T05:31:40.729Z,0.20
2023-01-27T05:32:40.547Z,0.30
2023-01-27T05:33:40.525Z,0.30
2023-01-27T05:34:40.510Z,0.20
2023-01-27T05:35:40.506Z,0.30
2023-01-27T05:36:40.488Z,0.30
2023-01-27T05:37:40.487Z,0.20
2023-01-27T05:38:40.459Z,0.30
2023-01-27T05:39:40.456Z,0.20
2023-01-27T05:40:40.435Z,0.30
2023-01-27T05:41:40.424Z,0.20
2023-01-27T05:42:40.412Z,0.30
2023-01-27T05:43:40.405Z,0.30
2023-01-27T05:44:40.412Z,0.30
2023-01-27T05:45:40.376Z,0.30
2023-01-27T05:46:40.466Z,0.30
2023-01-27T05:47:40.351Z,0.30
2023-01-27T05:48:40.339Z,0.20
2023-01-27T05:49:40.337Z,0.30
2023-01-27T05:50:40.324Z,0.30
2023-01-27T05:51:40.313Z,0.30
2023-01-27T05:52:40.292Z,0.20
2023-01-27T05:53:40.280Z,0.30
2023-01-27T05:54:40.264Z,0.20
2023-01-27T05:55:40.253Z,0.30
2023-01-27T05:56:40.240Z,0.30
2023-01-27T05:57:40.228Z,0.30
2023-01-27T05:58:40.237Z,0.30
2023-01-27T05:59:40.205Z,0.20
2023-01-27T06:00:40.213Z,0.30
2023-01-27T06:01:40.231Z,0.20
2023-01-27T06:02:40.264Z,0.40
2023-01-27T06:03:40.161Z,0.30
2023-01-27T06:04:40.140Z,0.30
2023-01-27T06:05:40.130Z,0.20
2023-01-27T06:06:40.116Z,0.30
2023-01-27T06:07:40.104Z,0.20
2023-01-27T06:08:40.089Z,0.20
2023-01-27T06:09:40.080Z,0.30
2023-01-27T06:10:40.069Z,0.20
2023-01-27T06:11:40.058Z,0.30
2023-01-27T06:12:40.041Z,0.20
2023-01-27T06:13:40.038Z,0.40
2023-01-27T06:14:40.017Z,0.30
2023-01-27T06:15:40.007Z,0.30
2023-01-27T06:16:40.057Z,0.30
2023-01-27T06:17:39.983Z,0.30
2023-01-27T06:18:39.978Z,0.30
2023-01-27T06:19:39.965Z,0.20
2023-01-27T06:20:39.945Z,0.30
2023-01-27T06:21:39.934Z,0.30
2023-01-27T06:22:39.921Z,0.30
2023-01-27T06:23:39.916Z,0.30
2023-01-27T06:24:39.897Z,0.30
2023-01-27T06:25:39.883Z,0.20
2023-01-27T06:26:39.869Z,0.30
2023-01-27T06:27:39.859Z,0.20
2023-01-27T06:28:39.862Z,0.30
2023-01-27T06:29:39.849Z,0.30
2023-01-27T06:30:39.847Z,0.40
2023-01-27T06:31:39.868Z,0.30
2023-01-27T06:32:39.817Z,0.30
2023-01-27T06:33:39.972Z,0.30
2023-01-27T06:34:39.769Z,0.30
2023-01-27T06:35:39.757Z,0.30
2023-01-27T06:36:39.742Z,0.20
2023-01-27T06:37:39.731Z,0.30
2023-01-27T06:38:39.717Z,0.20
2023-01-27T06:39:39.705Z,0.30
2023-01-27T06:40:39.691Z,0.30
2023-01-27T06:41:39.692Z,0.30
2023-01-27T06:42:39.665Z,0.30
2023-01-27T06:43:39.655Z,0.30
2023-01-27T06:44:39.643Z,0.30
2023-01-27T06:45:39.625Z,0.30
2023-01-27T06:46:39.611Z,0.30
2023-01-27T06:47:39.605Z,0.30
2023-01-27T06:48:39.610Z,0.30
2023-01-27T06:49:39.578Z,0.20
2023-01-27T06:50:39.595Z,0.30
2023-01-27T06:51:39.549Z,0.20
2023-01-27T06:52:39.534Z,0.30
2023-01-27T06:53:39.525Z,0.30
2023-01-27T06:54:39.511Z,0.20
2023-01-27T06:55:39.499Z,0.20
2023-01-27T06:56:39.486Z,0.20
2023-01-27T06:57:39.476Z,0.30
2023-01-27T06:58:39.470Z,0.20
2023-01-27T06:59:39.454Z,0.30
2023-01-27T07:00:39.443Z,0.20
2023-01-27T07:01:39.504Z,0.30
2023-01-27T07:02:39.569Z,0.20
2023-01-27T07:03:39.411Z,0.30
2023-01-27T07:04:39.430Z,0.30
2023-01-27T07:05:39.379Z,0.30
2023-01-27T07:06:39.367Z,0.30
2023-01-27T07:07:39.364Z,0.30
2023-01-27T07:08:39.339Z,0.20
2023-01-27T07:09:51.790Z,0.20
2023-01-27T07:10:39.316Z,0.30
2023-01-27T07:11:39.304Z,0.20
2023-01-27T07:12:39.293Z,0.30
2023-01-27T07:13:39.280Z,0.20
2023-01-27T07:14:39.265Z,0.30
2023-01-27T07:15:39.258Z,10.30
2023-01-27T07:16:39.278Z,12.00
2023-01-27T07:17:39.234Z,0.80
2023-01-27T07:18:39.214Z,0.80
2023-01-27T07:19:39.221Z,0.80
2023-01-27T07:20:39.233Z,0.70
2023-01-27T07:21:39.180Z,0.80
2023-01-27T07:22:39.168Z,0.70
2023-01-27T07:23:39.152Z,0.80
2023-01-27T07:24:39.134Z,0.70
2023-01-27T07:25:39.135Z,2.59
2023-01-27T07:26:39.113Z,16.79
2023-01-27T07:27:39.099Z,1.00
2023-01-27T07:28:39.084Z,0.80
2023-01-27T07:29:39.074Z,0.80
2023-01-27T07:30:39.176Z,0.80
2023-01-27T07:31:39.049Z,0.80
2023-01-27T07:32:39.035Z,0.80
2023-01-27T07:33:39.026Z,0.70
2023-01-27T07:34:39.011Z,0.80
2023-01-27T07:35:39.009Z,0.80
2023-01-27T07:36:39.011Z,9.39
2023-01-27T07:37:38.973Z,26.39
2023-01-27T07:38:38.987Z,0.90
2023-01-27T07:39:38.956Z,0.80
2023-01-27T07:40:38.955Z,0.90
2023-01-27T07:41:38.921Z,0.80
2023-01-27T07:42:38.912Z,0.70
2023-01-27T07:43:38.898Z,0.70
2023-01-27T07:44:38.886Z,0.70
2023-01-27T07:45:38.942Z,0.90
2023-01-27T07:46:38.861Z,0.70
2023-01-27T07:47:38.846Z,10.30
2023-01-27T07:48:38.840Z,9.19
2023-01-27T07:49:38.826Z,0.80
2023-01-27T07:50:38.822Z,0.60
2023-01-27T07:51:38.801Z,0.80
2023-01-27T07:52:38.806Z,0.60
2023-01-27T07:53:38.830Z,0.60
2023-01-27T07:54:38.759Z,0.60
2023-01-27T07:55:38.752Z,0.60
2023-01-27T07:56:38.736Z,0.60
2023-01-27T07:57:38.718Z,4.40
2023-01-27T07:58:38.709Z,26.79
2023-01-27T07:59:38.702Z,0.50
2023-01-27T08:01:38.672Z,0.70
2023-01-27T08:02:38.660Z,0.60
2023-01-27T08:03:38.675Z,0.70
2023-01-27T08:05:38.616Z,0.70
2023-01-27T08:06:38.614Z,0.70
2023-01-27T08:07:38.594Z,0.60
2023-01-27T08:08:38.617Z,14.69
2023-01-27T08:09:38.568Z,31.70
2023-01-27T08:10:38.556Z,0.70
2023-01-27T08:11:38.547Z,0.70
2023-01-27T08:12:38.533Z,0.60
2023-01-27T08:13:38.516Z,0.70
2023-01-27T08:14:38.503Z,0.70
2023-01-27T08:15:38.492Z,0.70
2023-01-27T08:16:38.504Z,0.60
2023-01-27T08:17:38.468Z,0.70
2023-01-27T08:18:38.458Z,0.80
2023-01-27T08:19:38.442Z,12.19
2023-01-27T08:20:38.463Z,7.69
2023-01-27T08:21:38.412Z,0.70
2023-01-27T08:22:38.415Z,0.80
2023-01-27T08:23:38.387Z,0.60
2023-01-27T08:24:38.400Z,0.70
2023-01-27T08:25:38.359Z,0.70
2023-01-27T08:26:38.347Z,0.60
2023-01-27T08:27:38.334Z,0.70
2023-01-27T08:28:38.322Z,0.60
2023-01-27T08:29:38.305Z,6.90
2023-01-27T08:30:38.322Z,27.20
2023-01-27T08:31:38.340Z,0.70
2023-01-27T08:32:38.268Z,0.60
2023-01-27T08:33:38.256Z,0.70
2023-01-27T08:34:38.241Z,0.70
2023-01-27T08:35:38.229Z,0.80
2023-01-27T08:36:38.217Z,0.70
2023-01-27T08:37:38.211Z,0.80
2023-01-27T08:38:38.199Z,0.70
2023-01-27T08:39:38.177Z,0.60
2023-01-27T08:40:38.196Z,11.89
2023-01-27T08:41:38.152Z,69.59
2023-01-27T08:42:38.141Z,71.40
2023-01-27T08:43:38.131Z,71.59
2023-01-27T08:44:38.112Z,71.59
2023-01-27T08:45:38.117Z,70.90
2023-01-27T08:46:38.091Z,69.80
2023-01-27T08:47:38.071Z,78.40
2023-01-27T08:48:38.059Z,71.80
2023-01-27T08:49:38.044Z,71.09
2023-01-27T08:50:38.033Z,71.09
2023-01-27T08:51:38.020Z,69.69
2023-01-27T08:52:38.013Z,70.59
2023-01-27T08:53:38.000Z,70.50
2023-01-27T08:54:37.980Z,68.09
2023-01-27T08:55:37.968Z,70.80
2023-01-27T08:56:37.977Z,71.30
2023-01-27T08:57:37.955Z,71.00
2023-01-27T08:58:37.932Z,70.19
2023-01-27T08:59:37.910Z,71.30
2023-01-27T09:00:37.905Z,70.00
2023-01-27T09:01:37.964Z,73.59
2023-01-27T09:02:37.873Z,66.00
2023-01-27T09:03:37.860Z,64.40
2023-01-27T09:04:37.896Z,67.40
2023-01-27T09:05:37.843Z,68.69
2023-01-27T09:06:37.822Z,70.40
2023-01-27T09:07:37.810Z,69.19
2023-01-27T09:08:37.797Z,65.90
2023-01-27T09:09:37.783Z,64.90
2023-01-27T09:10:37.771Z,60.90
2023-01-27T09:11:37.757Z,61.00
2023-01-27T09:12:37.784Z,64.00
2023-01-27T09:13:37.729Z,67.40
2023-01-27T09:14:37.723Z,70.90
2023-01-27T09:15:37.703Z,72.40
2023-01-27T09:16:37.692Z,74.59
2023-01-27T09:17:37.679Z,72.00
2023-01-27T09:18:37.696Z,71.19
2023-01-27T09:19:37.671Z,69.19
2023-01-27T09:20:37.644Z,70.09
2023-01-27T09:21:37.640Z,72.80
2023-01-27T09:22:37.619Z,83.80
2023-01-27T09:23:37.607Z,77.50
2023-01-27T09:24:37.592Z,80.19
2023-01-27T09:25:37.581Z,74.50
2023-01-27T09:26:37.566Z,73.80
2023-01-27T09:27:39.945Z,68.19
2023-01-27T09:28:37.568Z,66.40
2023-01-27T09:29:37.528Z,73.50
2023-01-27T09:30:39.977Z,72.50
2023-01-27T09:31:37.646Z,68.50
2023-01-27T09:32:37.491Z,64.40
2023-01-27T09:33:37.477Z,65.00
2023-01-27T09:34:37.482Z,61.29
2023-01-27T09:35:37.478Z,64.50
2023-01-27T09:36:37.443Z,65.69
2023-01-27T09:37:37.446Z,68.50
2023-01-27T09:38:37.431Z,66.00
2023-01-27T09:39:37.419Z,66.00
2023-01-27T09:40:37.390Z,64.69
2023-01-27T09:41:37.377Z,63.59
2023-01-27T09:42:37.371Z,63.40
2023-01-27T09:43:37.351Z,65.50
2023-01-27T09:44:37.362Z,69.40
2023-01-27T09:45:37.327Z,75.59
2023-01-27T09:46:37.334Z,69.80
2023-01-27T09:47:37.306Z,64.30
2023-01-27T09:48:37.291Z,61.20
2023-01-27T09:49:37.276Z,64.59
2023-01-27T09:50:37.263Z,64.09
2023-01-27T09:51:37.248Z,64.69
2023-01-27T09:52:47.124Z,61.09
2023-01-27T09:53:39.228Z,58.90
2023-01-27T09:54:37.219Z,58.50
2023-01-27T09:55:37.199Z,60.50
2023-01-27T09:56:37.185Z,58.29
2023-01-27T09:57:37.184Z,61.09
2023-01-27T09:58:37.170Z,60.70
2023-01-27T09:59:37.148Z,59.00
2023-01-27T10:00:37.165Z,58.00
2023-01-27T10:01:37.153Z,58.09
2023-01-27T10:02:37.109Z,58.79
2023-01-27T10:03:37.105Z,59.90
2023-01-27T10:04:37.158Z,63.09
2023-01-27T10:05:37.070Z,59.70
2023-01-27T10:06:37.077Z,59.29
2023-01-27T10:07:37.044Z,64.19
2023-01-27T10:08:37.035Z,62.40
2023-01-27T10:09:37.021Z,61.59
2023-01-27T10:10:37.006Z,60.20
2023-01-27T10:11:37.002Z,61.00
2023-01-27T10:12:36.981Z,61.70
2023-01-27T10:13:36.969Z,63.09
2023-01-27T10:14:36.956Z,63.79
2023-01-27T10:15:36.942Z,61.09
2023-01-27T10:16:37.072Z,60.20
2023-01-27T10:17:36.922Z,61.09
2023-01-27T10:18:36.905Z,60.20
2023-01-27T10:19:36.899Z,61.09
2023-01-27T10:20:36.882Z,60.00
2023-01-27T10:21:36.866Z,59.40
2023-01-27T10:22:36.866Z,61.29
2023-01-27T10:23:36.839Z,63.20
2023-01-27T10:24:36.829Z,63.59
2023-01-27T10:25:36.814Z,63.00
2023-01-27T10:26:36.801Z,63.29
2023-01-27T10:27:36.824Z,62.09
2023-01-27T10:28:36.775Z,61.90
2023-01-27T10:29:36.765Z,62.59
2023-01-27T10:30:36.804Z,59.40
2023-01-27T10:31:36.803Z,57.29
2023-01-27T10:32:36.755Z,55.59
2023-01-27T10:33:36.716Z,55.40
2023-01-27T10:34:36.700Z,55.50
2023-01-27T10:35:36.687Z,59.70
2023-01-27T10:36:36.676Z,61.79
2023-01-27T10:37:36.661Z,63.09
2023-01-27T10:38:36.649Z,62.20
2023-01-27T10:39:36.638Z,63.40
2023-01-27T10:40:36.624Z,60.79
2023-01-27T10:41:36.616Z,61.40
2023-01-27T10:42:36.606Z,60.79
2023-01-27T10:43:36.587Z,60.20
2023-01-27T10:44:36.576Z,60.50
2023-01-27T10:45:36.598Z,62.00
2023-01-27T10:46:36.568Z,60.20
2023-01-27T10:47:36.533Z,61.40
2023-01-27T10:48:36.544Z,64.80
2023-01-27T10:49:36.550Z,66.40
2023-01-27T10:50:36.501Z,66.00
2023-01-27T10:51:36.482Z,66.69
2023-01-27T10:52:36.475Z,64.80
2023-01-27T10:53:36.460Z,63.90
2023-01-27T10:54:36.446Z,60.09
2023-01-27T10:55:36.437Z,58.40
2023-01-27T10:56:36.419Z,61.00
2023-01-27T10:57:36.411Z,61.09
2023-01-27T10:58:36.392Z,62.90
2023-01-27T10:59:36.380Z,61.59
2023-01-27T11:01:19.271Z,58.09
2023-01-27T11:01:38.403Z,58.50
2023-01-27T11:02:36.344Z,58.50
2023-01-27T11:03:36.328Z,57.70
2023-01-27T11:04:36.426Z,56.90
2023-01-27T11:05:36.302Z,57.50
2023-01-27T11:06:36.296Z,56.59
2023-01-27T11:07:36.279Z,57.29
2023-01-27T11:08:36.276Z,54.59
2023-01-27T11:09:36.261Z,55.29
2023-01-27T11:10:36.243Z,59.09
2023-01-27T11:11:36.240Z,77.09
2023-01-27T11:12:36.218Z,97.59
2023-01-27T11:13:36.209Z,110.09
2023-01-27T11:14:38.538Z,80.40
2023-01-27T11:15:36.179Z,70.30
2023-01-27T11:16:36.228Z,68.59
2023-01-27T11:17:36.152Z,65.19
2023-01-27T11:18:36.142Z,62.29
2023-01-27T11:19:36.141Z,71.40
2023-01-27T11:20:36.163Z,79.90
2023-01-27T11:21:36.100Z,80.00
2023-01-27T11:22:36.089Z,76.69
2023-01-27T11:23:36.080Z,78.40
2023-01-27T11:24:36.087Z,71.30
2023-01-27T11:25:36.048Z,68.30
2023-01-27T11:26:36.037Z,71.30
2023-01-27T11:27:36.023Z,80.30
2023-01-27T11:28:36.012Z,87.09
2023-01-27T11:29:36.003Z,108.69
2023-01-27T11:30:36.082Z,116.80
2023-01-27T11:31:37.889Z,120.40
2023-01-27T11:32:35.960Z,123.80
2023-01-27T11:33:35.946Z,123.40
2023-01-27T11:34:35.934Z,116.80
2023-01-27T11:35:35.926Z,121.30
2023-01-27T11:36:35.936Z,130.89
2023-01-27T11:37:35.898Z,129.60
2023-01-27T11:38:35.884Z,123.59
2023-01-27T11:39:35.876Z,128.39
2023-01-27T11:40:35.859Z,128.10
2023-01-27T11:41:35.843Z,128.89
2023-01-27T11:42:35.845Z,120.00
2023-01-27T11:43:35.818Z,123.09
2023-01-27T11:44:35.805Z,127.80
2023-01-27T11:45:35.926Z,114.40
2023-01-27T11:46:35.777Z,99.00
2023-01-27T11:47:35.770Z,87.40
2023-01-27T11:48:35.766Z,89.19
2023-01-27T11:49:35.746Z,86.50
2023-01-27T11:50:35.759Z,83.69
2023-01-27T11:51:35.716Z,80.30
2023-01-27T11:52:35.767Z,78.50
2023-01-27T11:53:35.689Z,87.90
2023-01-27T11:54:35.709Z,119.90
2023-01-27T11:55:35.665Z,125.80
2023-01-27T11:56:35.649Z,132.80
2023-01-27T11:57:35.651Z,122.30
2023-01-27T11:58:35.624Z,113.19
2023-01-27T11:59:35.612Z,101.40
2023-01-27T12:00:35.598Z,82.30
2023-01-27T12:01:35.590Z,81.50
2023-01-27T12:02:35.574Z,80.80
2023-01-27T12:03:35.566Z,82.90
2023-01-27T12:04:35.656Z,80.80
2023-01-27T12:05:35.536Z,79.69
2023-01-27T12:06:35.520Z,68.50
2023-01-27T12:07:35.509Z,60.09
2023-01-27T12:08:35.518Z,59.20
2023-01-27T12:09:35.496Z,54.29
2023-01-27T12:10:35.498Z,56.59
2023-01-27T12:11:35.476Z,58.29
2023-01-27T12:12:35.459Z,57.00
2023-01-27T12:13:35.452Z,57.79
2023-01-27T12:14:35.416Z,57.29
2023-01-27T12:15:35.433Z,58.40
2023-01-27T12:16:35.393Z,58.40
2023-01-27T12:17:35.396Z,58.50
2023-01-27T12:18:35.365Z,57.50
2023-01-27T12:19:35.355Z,58.90
2023-01-27T12:20:35.346Z,59.50
2023-01-27T12:21:35.327Z,62.70
2023-01-27T12:22:35.312Z,62.79
2023-01-27T12:23:35.301Z,65.00
2023-01-27T12:24:35.318Z,65.09
2023-01-27T12:25:35.279Z,64.80
2023-01-27T12:26:35.261Z,66.30
2023-01-27T12:27:35.250Z,69.19
2023-01-27T12:28:35.252Z,69.00
2023-01-27T12:29:35.231Z,69.40
2023-01-27T12:30:35.210Z,67.80
2023-01-27T12:31:35.284Z,65.50
2023-01-27T12:32:35.189Z,64.30
2023-01-27T12:33:35.172Z,63.70
2023-01-27T12:34:35.184Z,64.30
2023-01-27T12:35:35.148Z,64.30
2023-01-27T12:36:35.131Z,63.50
2023-01-27T12:37:35.139Z,63.29
2023-01-27T12:38:35.111Z,64.59
2023-01-27T12:39:35.109Z,67.50
2023-01-27T12:40:35.106Z,66.69
2023-01-27T12:41:35.073Z,65.59
2023-01-27T12:42:35.057Z,65.90
2023-01-27T12:43:35.045Z,67.80
2023-01-27T12:44:35.031Z,68.50
2023-01-27T12:45:35.129Z,67.90
2023-01-27T12:46:35.076Z,67.40
2023-01-27T12:47:34.997Z,67.50
2023-01-27T12:48:34.980Z,66.09
2023-01-27T12:49:34.968Z,64.19
2023-01-27T12:50:34.957Z,61.50
2023-01-27T12:51:34.944Z,63.40
2023-01-27T12:52:34.932Z,63.70
2023-01-27T12:53:34.923Z,63.79
2023-01-27T12:54:34.924Z,62.00
2023-01-27T12:55:34.893Z,63.09
2023-01-27T12:56:34.918Z,64.69
2023-01-27T12:57:34.874Z,64.90
2023-01-27T12:58:34.874Z,64.90
2023-01-27T12:59:34.843Z,66.80
2023-01-27T13:00:34.892Z,66.00
2023-01-27T13:01:34.907Z,65.50
2023-01-27T13:02:34.801Z,64.69
2023-01-27T13:03:34.829Z,67.09
2023-01-27T13:04:37.155Z,68.69
2023-01-27T13:05:34.763Z,69.80
2023-01-27T13:06:34.751Z,65.80
2023-01-27T13:08:34.726Z,65.80
2023-01-27T13:09:34.717Z,63.50
2023-01-27T13:10:34.698Z,61.40
2023-01-27T13:11:34.686Z,64.40
2023-01-27T13:12:34.699Z,62.70
2023-01-27T13:13:34.681Z,60.40